Murdochville, Canada
Current Conditions -  °F | °C
As of 3:00 AM on Saturday 29 Nov 2014 (Local Time) from CYGP Reporting Station
Overcast Overcast  
Wind Chill:   Ceiling: 3000
Heat Index: 16°   Visibility: 15mi
Dew Point: 12°   Wind: 7mph
Humidity: 86%   Direction: 290°WNW
Pressure: 30.03"   Gusts: NA
Location:  48.97°N, 65.52°W
Report Text: CYGP 290800Z 29006KT 15SM BKN030 OVC120 M09/M11 A3003 RMK SC5AC3 SLP171
Loading
Personal Weather Stations






























Interactive Weather Map New forecast layout! Learn more

10-Day Weather Forecast

Advertisements
Track Severe Weather on mobile